createdAt,value
2018-12-06T00:01:32.396Z,15.40
2018-12-06T00:04:00.854Z,17.43
2018-12-06T00:06:29.456Z,18.00
2018-12-06T00:08:57.781Z,19.17
2018-12-06T00:11:25.943Z,17.23
2018-12-06T00:13:54.268Z,15.73
2018-12-06T00:16:22.587Z,17.97
2018-12-06T00:19:02.400Z,17.10
2018-12-06T00:21:30.851Z,17.53
2018-12-06T00:23:59.028Z,17.83
2018-12-06T00:26:27.190Z,18.33
2018-12-06T00:28:55.640Z,17.77
2018-12-06T00:31:23.880Z,16.20
2018-12-06T00:33:52.036Z,19.10
2018-12-06T00:36:20.262Z,18.47
2018-12-06T00:38:48.689Z,17.97
2018-12-06T00:41:24.312Z,19.43
2018-12-06T00:43:52.446Z,19.80
2018-12-06T00:46:20.932Z,17.57
2018-12-06T00:48:49.163Z,17.70
2018-12-06T00:51:17.725Z,18.33
2018-12-06T00:53:45.857Z,17.13
2018-12-06T00:56:14.327Z,17.37
2018-12-06T00:58:42.449Z,18.63
2018-12-06T01:01:11.598Z,20.73
2018-12-06T01:03:39.939Z,19.43
2018-12-06T01:06:08.058Z,17.23
2018-12-06T01:08:36.598Z,19.93
2018-12-06T01:11:05.084Z,18.77
2018-12-06T01:13:33.264Z,18.67
2018-12-06T01:16:01.604Z,18.43
2018-12-06T01:18:29.719Z,17.23
2018-12-06T01:20:57.858Z,16.73
2018-12-06T01:23:26.453Z,16.67
2018-12-06T01:25:54.975Z,17.40
2018-12-06T01:28:23.214Z,16.03
2018-12-06T01:30:51.381Z,17.03
2018-12-06T01:33:22.832Z,16.20
2018-12-06T01:35:51.418Z,14.90
2018-12-06T01:38:19.681Z,15.47
2018-12-06T01:40:48.117Z,19.00
2018-12-06T01:43:16.269Z,17.43
2018-12-06T01:45:44.580Z,17.33
2018-12-06T01:48:13.373Z,14.77
2018-12-06T01:50:41.643Z,17.87
2018-12-06T01:53:10.174Z,19.90
2018-12-06T01:55:38.414Z,16.53
2018-12-06T01:58:06.996Z,15.80
2018-12-06T02:00:35.179Z,17.57
2018-12-06T02:03:03.528Z,15.90
2018-12-06T02:05:31.738Z,16.20
2018-12-06T02:08:00.284Z,19.60
2018-12-06T02:10:28.514Z,17.07
2018-12-06T02:12:56.836Z,17.87
2018-12-06T02:15:25.135Z,18.30
2018-12-06T02:17:53.333Z,18.03
2018-12-06T02:20:21.896Z,19.73
2018-12-06T02:22:50.147Z,19.77
2018-12-06T02:25:18.366Z,19.17
2018-12-06T02:27:46.558Z,20.37
2018-12-06T02:30:14.861Z,17.87
2018-12-06T02:32:43.268Z,16.63
2018-12-06T02:35:11.393Z,16.47
2018-12-06T02:37:39.633Z,16.43
2018-12-06T02:40:07.920Z,13.33
2018-12-06T02:42:36.260Z,12.93
2018-12-06T02:45:05.224Z,14.83
2018-12-06T02:47:33.443Z,18.77
2018-12-06T02:50:01.840Z,17.03
2018-12-06T02:52:30.227Z,16.27
2018-12-06T02:54:58.388Z,19.63
2018-12-06T02:57:26.583Z,15.77
2018-12-06T02:59:54.748Z,17.23
2018-12-06T03:02:23.342Z,17.50
2018-12-06T03:04:51.496Z,16.57
2018-12-06T03:07:19.640Z,19.23
2018-12-06T03:09:48.177Z,17.17
2018-12-06T03:12:16.464Z,14.97
2018-12-06T03:14:45.102Z,17.67
2018-12-06T03:17:13.352Z,17.93
2018-12-06T03:19:41.556Z,16.70
2018-12-06T03:22:09.696Z,15.47
2018-12-06T03:24:38.136Z,16.13
2018-12-06T03:27:06.690Z,16.20
2018-12-06T03:29:35.175Z,16.10
2018-12-06T03:32:03.464Z,16.40
2018-12-06T03:34:31.797Z,16.33
2018-12-06T03:37:00.164Z,16.73
2018-12-06T03:39:28.388Z,17.77
2018-12-06T03:41:56.973Z,17.63
2018-12-06T03:44:25.172Z,20.97
2018-12-06T03:46:53.396Z,16.50
2018-12-06T03:49:21.980Z,17.40
2018-12-06T03:51:50.615Z,16.33
2018-12-06T03:54:19.393Z,15.53
2018-12-06T03:56:47.689Z,19.80
2018-12-06T03:59:15.917Z,15.50
2018-12-06T04:01:44.230Z,18.43
2018-12-06T04:04:12.772Z,16.40
2018-12-06T04:06:41.042Z,16.57
2018-12-06T04:09:09.152Z,12.90
2018-12-06T04:11:37.548Z,17.67
2018-12-06T04:14:05.970Z,15.10
2018-12-06T04:16:34.352Z,15.03
2018-12-06T04:19:02.566Z,16.93
2018-12-06T04:21:30.710Z,17.43
2018-12-06T04:23:59.076Z,20.37
2018-12-06T04:26:27.269Z,16.13
2018-12-06T04:28:55.398Z,15.17
2018-12-06T04:31:23.744Z,17.17
2018-12-06T04:33:51.939Z,15.77
2018-12-06T04:36:20.332Z,14.43
2018-12-06T04:38:48.468Z,18.63
2018-12-06T04:41:16.844Z,16.20
2018-12-06T04:43:44.979Z,16.10
2018-12-06T04:46:13.128Z,17.03
2018-12-06T04:48:41.376Z,14.73
2018-12-06T04:51:11.357Z,14.63
2018-12-06T04:53:39.627Z,17.10
2018-12-06T04:56:07.772Z,13.23
2018-12-06T04:58:36.123Z,14.73
2018-12-06T05:01:04.864Z,13.50
2018-12-06T05:03:33.711Z,14.63
2018-12-06T05:06:02.164Z,14.83
2018-12-06T05:08:30.305Z,16.43
2018-12-06T05:10:58.644Z,18.87
2018-12-06T05:13:27.287Z,18.80
2018-12-06T05:15:55.437Z,17.10
2018-12-06T05:18:23.901Z,18.23
2018-12-06T05:20:52.962Z,18.10
2018-12-06T05:23:21.277Z,18.60
2018-12-06T05:25:49.488Z,13.07
2018-12-06T05:28:17.913Z,17.27
2018-12-06T05:30:46.396Z,12.93
2018-12-06T05:33:14.538Z,15.83
2018-12-06T05:35:42.769Z,16.60
2018-12-06T05:38:11.001Z,15.70
2018-12-06T05:40:39.248Z,16.07
2018-12-06T05:43:07.447Z,14.63
2018-12-06T05:45:35.808Z,17.30
2018-12-06T05:48:04.119Z,18.23
2018-12-06T05:50:33.769Z,13.50
2018-12-06T05:53:01.964Z,18.37
2018-12-06T05:55:30.137Z,14.60
2018-12-06T05:57:58.282Z,13.83
2018-12-06T06:00:26.477Z,13.70
2018-12-06T06:02:54.649Z,19.80
2018-12-06T06:05:22.810Z,17.97
2018-12-06T06:07:50.949Z,14.83
2018-12-06T06:10:19.068Z,16.43
2018-12-06T06:12:47.213Z,15.57
2018-12-06T06:15:15.330Z,16.97
2018-12-06T06:17:43.466Z,16.27
2018-12-06T06:20:11.676Z,14.30
2018-12-06T06:22:39.820Z,16.53
2018-12-06T06:25:08.044Z,16.53
2018-12-06T06:27:36.272Z,18.93
2018-12-06T06:30:05.017Z,19.73
2018-12-06T06:32:33.277Z,20.83
2018-12-06T06:35:01.444Z,19.37
2018-12-06T06:37:29.690Z,19.77
2018-12-06T06:39:57.896Z,21.50
2018-12-06T06:42:26.037Z,20.67
2018-12-06T06:44:54.185Z,19.57
2018-12-06T06:47:22.401Z,19.00
2018-12-06T06:49:50.552Z,20.23
2018-12-06T06:52:18.684Z,18.70
2018-12-06T06:54:46.843Z,19.83
2018-12-06T06:57:14.976Z,21.23
2018-12-06T06:59:43.209Z,17.83
2018-12-06T07:02:11.340Z,21.13
2018-12-06T07:04:39.493Z,20.47
2018-12-06T07:07:07.612Z,17.80
2018-12-06T07:09:35.754Z,18.07
2018-12-06T07:12:04.745Z,18.17
2018-12-06T07:14:32.917Z,17.37
2018-12-06T07:17:01.308Z,17.00
2018-12-06T07:19:30.092Z,19.13
2018-12-06T07:21:58.852Z,16.87
2018-12-06T07:24:27.184Z,19.30
2018-12-06T07:26:55.457Z,17.30
2018-12-06T07:29:23.874Z,17.83
2018-12-06T07:31:52.021Z,15.77
2018-12-06T07:34:20.176Z,18.00
2018-12-06T07:36:48.487Z,18.10
2018-12-06T07:39:16.643Z,19.20
2018-12-06T07:41:44.789Z,21.17
2018-12-06T07:44:12.976Z,17.70
2018-12-06T07:46:41.428Z,16.20
2018-12-06T07:49:09.664Z,15.47
2018-12-06T07:51:44.609Z,17.37
2018-12-06T07:54:14.000Z,17.37
2018-12-06T07:56:42.296Z,16.03
2018-12-06T07:59:10.454Z,20.53
2018-12-06T08:01:38.696Z,17.53
2018-12-06T08:04:06.940Z,20.17
2018-12-06T08:06:35.090Z,15.03
2018-12-06T08:09:04.844Z,15.00
2018-12-06T08:11:33.077Z,19.17
2018-12-06T08:14:01.241Z,15.10
2018-12-06T08:16:29.394Z,15.33
2018-12-06T08:18:57.553Z,20.27
2018-12-06T08:21:25.701Z,20.53
2018-12-06T08:23:53.842Z,15.97
2018-12-06T08:26:22.119Z,18.77
2018-12-06T08:28:50.298Z,16.63
2018-12-06T08:31:18.532Z,18.33
2018-12-06T08:33:46.677Z,17.10
2018-12-06T08:36:14.828Z,14.97
2018-12-06T08:38:42.990Z,15.03
2018-12-06T08:41:11.104Z,13.93
2018-12-06T08:43:39.264Z,15.47
2018-12-06T08:46:07.429Z,15.50
2018-12-06T08:48:35.689Z,18.37
2018-12-06T08:51:03.935Z,15.67
2018-12-06T08:53:32.108Z,14.23
2018-12-06T08:56:00.254Z,16.83
2018-12-06T08:58:28.416Z,14.70
2018-12-06T09:00:56.563Z,14.97
2018-12-06T09:03:24.714Z,16.23
2018-12-06T09:05:52.856Z,16.00
2018-12-06T09:08:21.057Z,13.37
2018-12-06T09:10:51.706Z,14.90
2018-12-06T09:13:19.332Z,14.83
2018-12-06T09:15:47.517Z,12.30
2018-12-06T09:18:15.653Z,13.43
2018-12-06T09:20:43.885Z,13.20
2018-12-06T09:23:12.020Z,14.00
2018-12-06T09:25:40.184Z,14.80
2018-12-06T09:28:08.316Z,14.23
2018-12-06T09:30:36.453Z,10.30
2018-12-06T09:33:04.589Z,9.13
2018-12-06T09:35:32.735Z,9.73
2018-12-06T09:38:00.868Z,8.03
2018-12-06T09:40:29.110Z,8.17
2018-12-06T09:42:57.259Z,9.43
2018-12-06T09:45:25.484Z,7.93
2018-12-06T09:47:53.668Z,7.53
2018-12-06T09:50:21.829Z,7.83
2018-12-06T09:52:49.960Z,6.80
2018-12-06T09:55:18.251Z,7.77
2018-12-06T09:57:46.394Z,5.53
2018-12-06T10:00:16.477Z,7.33
2018-12-06T10:02:44.705Z,7.30
2018-12-06T10:05:12.995Z,6.67
2018-12-06T10:07:41.256Z,5.83
2018-12-06T10:10:09.577Z,5.67
2018-12-06T10:12:37.705Z,6.47
2018-12-06T10:15:06.041Z,6.47
2018-12-06T10:17:34.264Z,5.50
2018-12-06T10:20:02.578Z,6.20
2018-12-06T10:22:30.790Z,5.70
2018-12-06T10:24:58.925Z,6.30
2018-12-06T10:27:27.078Z,5.40
2018-12-06T10:29:55.234Z,4.53
2018-12-06T10:32:23.380Z,4.30
2018-12-06T10:34:53.561Z,4.30
2018-12-06T10:37:21.733Z,4.47
2018-12-06T10:39:50.619Z,4.93
2018-12-06T10:42:18.987Z,5.30
2018-12-06T10:44:47.165Z,5.17
2018-12-06T10:47:15.496Z,3.93
2018-12-06T10:49:43.648Z,2.63
2018-12-06T10:52:11.837Z,5.07
2018-12-06T10:54:40.072Z,3.67
2018-12-06T10:57:09.693Z,4.80
2018-12-06T10:59:37.924Z,4.73
2018-12-06T11:02:10.505Z,6.77
2018-12-06T11:04:38.659Z,3.47
2018-12-06T11:07:07.434Z,3.10
2018-12-06T11:09:35.660Z,3.97
2018-12-06T11:12:04.424Z,3.57
2018-12-06T11:14:32.568Z,2.93
2018-12-06T11:17:00.708Z,3.47
2018-12-06T11:19:28.836Z,4.03
2018-12-06T11:21:57.026Z,3.27
2018-12-06T11:24:25.240Z,5.10
2018-12-06T11:26:53.381Z,3.50
2018-12-06T11:29:21.523Z,2.20
2018-12-06T11:31:49.672Z,5.20
2018-12-06T11:34:17.824Z,4.87
2018-12-06T11:36:45.975Z,4.27
2018-12-06T11:39:14.188Z,1.83
2018-12-06T11:41:43.276Z,2.27
2018-12-06T11:44:11.811Z,4.97
2018-12-06T11:46:39.934Z,2.70
2018-12-06T11:49:08.074Z,2.47
2018-12-06T11:51:36.236Z,2.53
2018-12-06T11:54:04.467Z,3.37
2018-12-06T11:56:32.639Z,2.13
2018-12-06T11:59:00.872Z,2.73
2018-12-06T12:01:28.999Z,2.40
2018-12-06T12:03:57.140Z,2.93
2018-12-06T12:06:25.290Z,2.97
2018-12-06T12:08:53.444Z,2.83
2018-12-06T12:11:21.592Z,3.27
2018-12-06T12:13:49.747Z,4.03
2018-12-06T12:16:17.968Z,2.60
2018-12-06T12:18:46.136Z,2.37
2018-12-06T12:21:14.335Z,2.93
2018-12-06T12:23:42.498Z,4.10
2018-12-06T12:26:10.698Z,3.03
2018-12-06T12:28:38.828Z,2.77
2018-12-06T12:31:06.944Z,7.20
2018-12-06T12:33:35.191Z,3.03
2018-12-06T12:36:03.312Z,3.90
2018-12-06T12:38:31.444Z,2.30
2018-12-06T12:41:01.179Z,4.37
2018-12-06T12:43:29.529Z,3.40
2018-12-06T12:45:57.700Z,2.83
2018-12-06T12:48:26.103Z,2.53
2018-12-06T12:50:54.376Z,4.20
2018-12-06T12:53:23.094Z,3.50
2018-12-06T12:55:52.064Z,2.93
2018-12-06T12:58:20.248Z,2.87
2018-12-06T13:00:48.456Z,3.10
2018-12-06T13:03:16.633Z,2.00
2018-12-06T13:06:14.772Z,2.17
2018-12-06T13:08:42.909Z,2.73
2018-12-06T13:11:11.136Z,2.77
2018-12-06T13:13:39.356Z,1.90
2018-12-06T13:16:07.654Z,1.80
2018-12-06T13:18:35.880Z,2.27
2018-12-06T13:21:04.281Z,2.93
2018-12-06T13:23:32.399Z,3.80
2018-12-06T13:26:00.706Z,2.33
2018-12-06T13:28:28.933Z,2.00
2018-12-06T13:30:57.272Z,2.83
2018-12-06T13:33:25.407Z,2.43
2018-12-06T13:35:53.602Z,3.50
2018-12-06T13:38:21.816Z,2.60
2018-12-06T13:40:50.093Z,2.33
2018-12-06T13:43:18.362Z,2.77
2018-12-06T13:45:46.576Z,2.07
2018-12-06T13:48:14.741Z,1.80
2018-12-06T13:50:43.032Z,2.43
2018-12-06T13:53:11.173Z,2.27
2018-12-06T13:55:39.328Z,2.03
2018-12-06T13:58:07.753Z,3.07
2018-12-06T14:00:36.053Z,3.23
2018-12-06T14:03:04.342Z,2.20
2018-12-06T14:05:32.554Z,1.77
2018-12-06T14:08:00.753Z,1.70
2018-12-06T14:10:28.879Z,1.67
2018-12-06T14:12:57.007Z,1.47
2018-12-06T14:15:25.224Z,1.50
2018-12-06T14:17:53.461Z,1.60
2018-12-06T14:20:21.658Z,1.80
2018-12-06T14:22:49.800Z,1.57
2018-12-06T14:25:17.945Z,1.50
2018-12-06T14:27:46.334Z,1.83
2018-12-06T14:30:14.604Z,2.37
2018-12-06T14:32:42.729Z,3.40
2018-12-06T14:35:10.913Z,1.47
2018-12-06T14:37:39.136Z,2.70
2018-12-06T14:40:07.417Z,2.33
2018-12-06T14:42:35.580Z,1.70
2018-12-06T14:45:04.436Z,2.27
2018-12-06T14:47:32.654Z,2.50
2018-12-06T14:50:00.779Z,3.10
2018-12-06T14:52:28.984Z,1.47
2018-12-06T14:54:57.180Z,2.83
2018-12-06T14:57:25.331Z,2.60
2018-12-06T14:59:53.479Z,4.63
2018-12-06T15:02:21.776Z,2.87
2018-12-06T15:04:49.907Z,2.53
2018-12-06T15:07:19.063Z,1.70
2018-12-06T15:09:47.204Z,3.20
2018-12-06T15:12:15.313Z,2.13
2018-12-06T15:14:43.429Z,2.33
2018-12-06T15:17:11.550Z,2.73
2018-12-06T15:19:39.709Z,4.37
2018-12-06T15:22:07.959Z,2.10
2018-12-06T15:24:36.533Z,3.13
2018-12-06T15:27:04.644Z,2.37
2018-12-06T15:29:32.925Z,2.40
2018-12-06T15:32:01.169Z,2.27
2018-12-06T15:34:29.264Z,2.10
2018-12-06T15:36:57.376Z,3.87
2018-12-06T15:39:26.025Z,1.77
2018-12-06T15:41:54.139Z,2.70
2018-12-06T15:44:22.280Z,3.17
2018-12-06T15:46:50.405Z,1.60
2018-12-06T15:49:18.523Z,3.20
2018-12-06T15:51:46.781Z,2.37
2018-12-06T15:54:14.912Z,2.47
2018-12-06T15:56:43.031Z,1.50
2018-12-06T15:59:11.223Z,2.07
2018-12-06T16:01:39.341Z,1.47
2018-12-06T16:04:07.476Z,2.37
2018-12-06T16:06:35.626Z,3.10
2018-12-06T16:09:06.356Z,1.97
2018-12-06T16:11:34.572Z,1.97
2018-12-06T16:14:02.886Z,2.13
2018-12-06T16:16:31.007Z,2.40
2018-12-06T16:18:59.179Z,2.10
2018-12-06T16:21:27.343Z,3.50
2018-12-06T16:23:55.601Z,1.70
2018-12-06T16:26:23.724Z,1.93
2018-12-06T16:28:51.879Z,3.87
2018-12-06T16:31:20.012Z,1.83
2018-12-06T16:33:48.151Z,2.13
2018-12-06T16:36:16.536Z,2.73
2018-12-06T16:38:44.867Z,2.83
2018-12-06T16:41:13.073Z,3.30
2018-12-06T16:43:41.205Z,3.13
2018-12-06T16:46:09.324Z,2.27
2018-12-06T16:48:37.945Z,2.73
2018-12-06T16:51:06.299Z,4.63
2018-12-06T16:53:34.414Z,3.70
2018-12-06T16:56:02.537Z,5.47
2018-12-06T16:58:30.693Z,5.10
2018-12-06T17:00:58.820Z,8.43
2018-12-06T17:03:27.013Z,3.60
2018-12-06T17:05:55.171Z,2.67
2018-12-06T17:08:23.344Z,6.17
2018-12-06T17:10:51.574Z,3.10
2018-12-06T17:13:19.805Z,3.23
2018-12-06T17:15:48.092Z,5.07
2018-12-06T17:18:16.209Z,4.20
2018-12-06T17:20:44.411Z,2.67
2018-12-06T17:23:12.525Z,5.87
2018-12-06T17:25:40.676Z,3.13
2018-12-06T17:28:08.856Z,3.37
2018-12-06T17:30:37.030Z,6.37
2018-12-06T17:33:05.312Z,4.07
2018-12-06T17:35:33.448Z,3.60
2018-12-06T17:38:01.640Z,4.80
2018-12-06T17:40:29.752Z,6.73
2018-12-06T17:42:57.861Z,6.27
2018-12-06T17:45:26.031Z,5.80
2018-12-06T17:47:54.749Z,7.73
2018-12-06T17:50:23.100Z,3.90
2018-12-06T17:52:51.213Z,4.23
2018-12-06T17:55:19.468Z,6.03
2018-12-06T17:57:47.699Z,5.37
2018-12-06T18:00:16.258Z,6.30
2018-12-06T18:02:46.022Z,7.63
2018-12-06T18:05:15.602Z,6.53
2018-12-06T18:07:43.716Z,5.93
2018-12-06T18:10:12.132Z,5.90
2018-12-06T18:12:40.499Z,5.33
2018-12-06T18:15:09.860Z,5.30
2018-12-06T18:17:38.126Z,4.53
2018-12-06T18:20:07.139Z,4.60
2018-12-06T18:22:35.533Z,3.97
2018-12-06T18:25:04.017Z,4.30
2018-12-06T18:27:32.871Z,4.67
2018-12-06T18:30:01.257Z,4.97
2018-12-06T18:32:29.568Z,6.90
2018-12-06T18:34:57.759Z,4.10
2018-12-06T18:37:25.959Z,4.67
2018-12-06T18:39:54.165Z,4.47
2018-12-06T18:42:22.396Z,3.87
2018-12-06T18:44:50.596Z,5.70
2018-12-06T18:47:18.761Z,5.97
2018-12-06T18:49:46.978Z,4.30
2018-12-06T18:52:15.304Z,4.57
2018-12-06T18:54:43.488Z,5.07
2018-12-06T18:57:11.757Z,4.30
2018-12-06T18:59:40.028Z,3.73
2018-12-06T19:02:08.300Z,7.47
2018-12-06T19:04:36.612Z,6.23
2018-12-06T19:07:04.913Z,4.60
2018-12-06T19:09:33.140Z,7.37
2018-12-06T19:12:01.499Z,5.80
2018-12-06T19:14:29.744Z,7.00
2018-12-06T19:16:57.875Z,5.87
2018-12-06T19:19:26.164Z,5.10
2018-12-06T19:21:54.363Z,6.00
2018-12-06T19:24:22.592Z,5.87
2018-12-06T19:26:50.857Z,4.83
2018-12-06T19:29:18.964Z,3.73
2018-12-06T19:34:33.292Z,3.33
2018-12-06T19:37:02.453Z,5.50
2018-12-06T19:39:31.699Z,2.23
2018-12-06T19:42:00.523Z,2.00
2018-12-06T19:44:29.304Z,2.30
2018-12-06T19:46:57.766Z,2.37
2018-12-06T19:49:26.503Z,1.90
2018-12-06T19:51:55.749Z,2.13
2018-12-06T19:54:24.404Z,2.83
2018-12-06T19:56:53.211Z,2.10
2018-12-06T19:59:21.763Z,2.73
2018-12-06T20:01:50.009Z,2.43
2018-12-06T20:04:18.478Z,2.10
2018-12-06T20:06:46.661Z,2.77
2018-12-06T20:09:18.077Z,1.73
2018-12-06T20:11:46.342Z,1.70
2018-12-06T20:14:14.472Z,1.50
2018-12-06T20:16:42.732Z,2.00
2018-12-06T20:19:10.982Z,1.70
2018-12-06T20:21:39.105Z,12.67
2018-12-06T20:24:07.344Z,2.60
2018-12-06T20:26:35.509Z,2.23
2018-12-06T20:29:03.782Z,2.07
2018-12-06T20:31:31.925Z,3.10
2018-12-06T20:34:30.937Z,2.93
2018-12-06T20:36:59.197Z,1.63
2018-12-06T20:39:27.456Z,3.53
2018-12-06T20:41:55.593Z,1.50
2018-12-06T20:44:23.872Z,1.43
2018-12-06T20:46:52.016Z,1.80
2018-12-06T20:49:20.725Z,2.07
2018-12-06T20:51:49.170Z,1.83
2018-12-06T20:54:18.477Z,1.40
2018-12-06T20:56:46.759Z,3.43
2018-12-06T20:59:15.209Z,1.77
2018-12-06T21:01:43.471Z,1.65
2018-12-06T21:04:11.729Z,3.23
2018-12-06T21:06:40.001Z,2.43
2018-12-06T21:09:10.376Z,2.50
2018-12-06T21:11:39.509Z,2.73
2018-12-06T21:14:07.839Z,2.57
2018-12-06T21:16:36.056Z,1.97
2018-12-06T21:19:04.511Z,2.57
2018-12-06T21:21:32.664Z,2.73
2018-12-06T21:24:01.116Z,2.30
2018-12-06T21:26:29.441Z,1.77
2018-12-06T21:28:57.636Z,2.17
2018-12-06T21:31:25.782Z,2.80
2018-12-06T21:33:54.095Z,3.50
2018-12-06T21:36:22.283Z,2.00
2018-12-06T21:38:50.534Z,3.13
2018-12-06T21:41:18.967Z,1.80
2018-12-06T21:43:47.267Z,2.00
2018-12-06T21:46:15.496Z,2.27
2018-12-06T21:48:43.695Z,1.67
2018-12-06T21:51:14.074Z,2.40
2018-12-06T21:53:42.244Z,1.50
2018-12-06T21:56:10.493Z,2.20
2018-12-06T21:58:38.672Z,1.87
2018-12-06T22:01:07.429Z,1.67
2018-12-06T22:03:35.686Z,1.73
2018-12-06T22:06:03.981Z,1.40
2018-12-06T22:08:35.919Z,2.87
2018-12-06T22:11:04.130Z,1.77
2018-12-06T22:13:32.991Z,2.27
2018-12-06T22:16:01.261Z,2.00
2018-12-06T22:18:29.461Z,2.03
2018-12-06T22:20:57.623Z,2.47
2018-12-06T22:23:25.881Z,1.87
2018-12-06T22:25:53.987Z,2.07
2018-12-06T22:28:22.228Z,2.30
2018-12-06T22:30:50.353Z,1.60
2018-12-06T22:33:18.506Z,1.70
2018-12-06T22:35:46.718Z,1.90
2018-12-06T22:38:14.888Z,2.00
2018-12-06T22:40:43.108Z,2.10
2018-12-06T22:43:11.361Z,1.67
2018-12-06T22:46:10.241Z,1.73
2018-12-06T22:48:38.380Z,2.10
2018-12-06T22:51:07.077Z,1.93
2018-12-06T22:53:35.216Z,1.83
2018-12-06T22:56:03.531Z,1.73
2018-12-06T22:58:31.812Z,1.77
2018-12-06T23:01:01.262Z,1.87
2018-12-06T23:03:29.397Z,1.70
2018-12-06T23:05:57.744Z,1.60
2018-12-06T23:08:25.976Z,1.83
2018-12-06T23:10:54.168Z,1.70
2018-12-06T23:13:22.385Z,2.20
2018-12-06T23:15:50.612Z,1.63
2018-12-06T23:18:33.312Z,4.97
2018-12-06T23:21:01.549Z,2.37
2018-12-06T23:23:29.755Z,1.53
2018-12-06T23:25:57.948Z,1.50
2018-12-06T23:28:26.113Z,1.50
2018-12-06T23:30:54.296Z,1.53
2018-12-06T23:33:22.429Z,4.00
2018-12-06T23:35:50.664Z,1.33
2018-12-06T23:38:18.789Z,5.63
2018-12-06T23:40:46.991Z,1.70
2018-12-06T23:43:15.104Z,1.60
2018-12-06T23:45:43.319Z,2.33
2018-12-06T23:48:11.533Z,1.33
2018-12-06T23:50:39.671Z,1.67
2018-12-06T23:53:07.793Z,1.47
2018-12-06T23:55:35.925Z,1.30
2018-12-06T23:58:04.264Z,1.30
